createdAt,value
2023-11-30T00:08:42.360Z,1013
2023-11-30T00:18:42.324Z,1013
2023-11-30T00:28:42.312Z,1013
2023-11-30T00:38:42.322Z,1013
2023-11-30T00:48:42.335Z,1013
2023-11-30T00:58:42.416Z,1013
2023-11-30T01:08:42.545Z,1013
2023-11-30T01:18:42.586Z,1013
2023-11-30T01:28:42.450Z,1012
2023-11-30T01:38:42.360Z,1013
2023-11-30T01:48:42.383Z,1012
2023-11-30T01:58:42.476Z,1012
2023-11-30T02:08:42.610Z,1012
2023-11-30T02:18:42.510Z,1012
2023-11-30T02:28:42.496Z,1012
2023-11-30T02:38:42.677Z,1012
2023-11-30T02:48:42.513Z,1012
2023-11-30T02:58:42.566Z,1012
2023-11-30T03:08:42.474Z,1011
2023-11-30T03:18:42.555Z,1011
2023-11-30T03:28:42.426Z,1011
2023-11-30T03:38:42.492Z,1011
2023-11-30T03:48:42.586Z,1011
2023-11-30T03:58:42.549Z,1011
2023-11-30T04:08:42.581Z,1011
2023-11-30T04:18:42.701Z,1011
2023-11-30T04:28:42.591Z,1010
2023-11-30T04:38:42.671Z,1010
2023-11-30T04:48:42.886Z,1010
2023-11-30T04:58:42.583Z,1010
2023-11-30T05:08:42.598Z,1010
2023-11-30T05:18:42.749Z,1010
2023-11-30T05:28:42.533Z,1010
2023-11-30T05:38:42.753Z,1010
2023-11-30T05:48:42.778Z,1010
2023-11-30T05:58:42.531Z,1010
2023-11-30T06:08:51.349Z,1011
2023-11-30T06:18:42.592Z,1011
2023-11-30T06:28:42.634Z,1011
2023-11-30T06:38:42.689Z,1011
2023-11-30T06:48:42.819Z,1011
2023-11-30T06:58:42.642Z,1011
2023-11-30T07:08:42.763Z,1011
2023-11-30T07:18:42.662Z,1011
2023-11-30T07:28:42.822Z,1011
2023-11-30T07:38:42.586Z,1011
2023-11-30T07:48:42.582Z,1010
2023-11-30T07:58:42.581Z,1010
2023-11-30T08:08:42.587Z,1010
2023-11-30T08:18:42.800Z,1010
2023-11-30T08:28:42.712Z,1010
2023-11-30T08:38:42.830Z,1010
2023-11-30T08:48:42.807Z,1010
2023-11-30T08:58:42.812Z,1010
2023-11-30T09:08:42.885Z,1010
2023-11-30T09:18:42.735Z,1009
2023-11-30T09:28:42.832Z,1010
2023-11-30T09:38:42.654Z,1010
2023-11-30T09:48:42.659Z,1009
2023-11-30T09:58:42.635Z,1009
2023-11-30T10:08:42.625Z,1009
2023-11-30T10:18:42.749Z,1009
2023-11-30T10:28:42.624Z,1009
2023-11-30T10:38:42.798Z,1009
2023-11-30T10:48:42.786Z,1008
2023-11-30T10:58:42.689Z,1008
2023-11-30T11:08:42.837Z,1008
2023-11-30T11:18:42.781Z,1008
2023-11-30T11:28:42.712Z,1008
2023-11-30T11:38:42.707Z,1008
2023-11-30T11:48:42.913Z,1008
2023-11-30T11:58:42.707Z,1008
2023-11-30T12:08:42.814Z,1006
2023-11-30T12:18:42.843Z,1006
2023-11-30T12:28:42.973Z,1006
2023-11-30T12:38:42.934Z,1006
2023-11-30T12:48:42.739Z,1006
2023-11-30T12:58:42.720Z,1006
2023-11-30T13:08:42.705Z,1006
2023-11-30T13:18:42.819Z,1006
2023-11-30T13:28:47.250Z,1006
2023-11-30T13:38:42.888Z,1006
2023-11-30T13:48:42.944Z,1006
2023-11-30T13:58:42.740Z,1006
2023-11-30T14:08:42.739Z,1005
2023-11-30T14:18:42.886Z,1005
2023-11-30T14:28:42.767Z,1005
2023-11-30T14:38:42.940Z,1005
2023-11-30T14:48:43.040Z,1005
2023-11-30T14:58:43.010Z,1005
2023-11-30T15:08:42.948Z,1005
2023-11-30T15:18:43.036Z,1005
2023-11-30T15:28:43.015Z,1005
2023-11-30T15:38:42.859Z,1005
2023-11-30T15:48:43.098Z,1005
2023-11-30T15:58:42.946Z,1005
2023-11-30T16:08:42.922Z,1005
2023-11-30T16:18:43.065Z,1005
2023-11-30T16:28:42.959Z,1005
2023-11-30T16:38:42.893Z,1004
2023-11-30T16:48:42.804Z,1004
2023-11-30T16:58:42.947Z,1004
2023-11-30T17:08:42.928Z,1005
2023-11-30T17:18:43.078Z,1004
2023-11-30T17:28:42.936Z,1004
2023-11-30T17:38:43.035Z,1004
2023-11-30T17:48:42.868Z,1005
2023-11-30T17:58:42.876Z,1004
2023-11-30T18:08:42.848Z,1004
2023-11-30T18:18:43.041Z,1005
2023-11-30T18:28:42.877Z,1005
2023-11-30T18:38:47.418Z,1004
2023-11-30T18:48:43.021Z,1004
2023-11-30T18:58:42.888Z,1004
2023-11-30T19:08:42.997Z,1004
2023-11-30T19:18:43.133Z,1004
2023-11-30T19:28:43.023Z,1004
2023-11-30T19:38:43.011Z,1004
2023-11-30T19:48:42.993Z,1004
2023-11-30T19:58:43.143Z,1004
2023-11-30T20:08:42.995Z,1004
2023-11-30T20:18:43.070Z,1004
2023-11-30T20:28:43.094Z,1004
2023-11-30T20:38:43.152Z,1004
2023-11-30T20:48:43.027Z,1004
2023-11-30T20:58:43.141Z,1004
2023-11-30T21:08:42.993Z,1004
2023-11-30T21:18:43.137Z,1004
2023-11-30T21:28:43.030Z,1004
2023-11-30T21:38:43.085Z,1004
2023-11-30T21:48:43.163Z,1004
2023-11-30T21:58:42.993Z,1004
2023-11-30T22:08:43.063Z,1004
2023-11-30T22:18:43.109Z,1004
2023-11-30T22:28:43.117Z,1004
2023-11-30T22:38:45.718Z,1004
2023-11-30T22:48:43.100Z,1004
2023-11-30T22:58:42.994Z,1004
2023-11-30T23:08:42.982Z,1004
2023-11-30T23:18:42.996Z,1004
2023-11-30T23:28:43.129Z,1004
2023-11-30T23:38:43.072Z,1004
2023-11-30T23:48:43.125Z,1004
2023-11-30T23:58:43.093Z,1004
